Orbital elements of FENGYUN 1C DEB
| Launched | 9 May 1999 |
| Flight ended | – |
| Launch site | Taiyuan Space Center, PRC |
| Owner | People's Republic of China |
| NORAD ID | 32186 |
| Date fetched |
Epoch osculation |
Inc. [°] |
Ecc. | RA asc node [hr] |
Arg Peri. [°] |
Mean anom [°] |
Mean motion [rev/day] |
Abs. mag |
| Date fetched |
Epoch osculation |
Inc. [°] |
Ecc. | RA asc node [hr] |
Arg Peri. [°] |
Mean anom [°] |
Mean motion [rev/day] |
Abs. mag |
| 2026 May 05 17:57 | 2026 May 03 22:08:32 | 99.5910 | 0.02740 | 12.0561 | 189.2154 | 351.2454 | 13.76850 | – |
| 2026 May 04 17:57 | 2026 Apr 29 15:07:36 | 99.5920 | 0.02736 | 11.7673 | 200.3819 | 351.2454 | 13.76850 | – |
| 2026 May 03 17:57 | 2026 Apr 29 15:07:36 | 99.5920 | 0.02736 | 11.7673 | 200.3819 | 351.2454 | 13.76850 | – |
| 2026 May 02 17:57 | 2026 Apr 29 15:07:36 | 99.5920 | 0.02736 | 11.7673 | 200.3819 | 351.2454 | 13.76850 | – |
| 2026 May 01 17:56 | 2026 Apr 29 15:07:36 | 99.5920 | 0.02736 | 11.7673 | 200.3819 | 351.2454 | 13.76850 | – |
| 2026 Apr 30 17:56 | 2026 Apr 29 15:07:36 | 99.5920 | 0.02736 | 11.7673 | 200.3819 | 351.2454 | 13.76850 | – |
| 2026 Apr 29 17:57 | 2026 Apr 22 22:47:01 | 99.5924 | 0.02730 | 11.3176 | 217.7840 | 351.2454 | 13.76850 | – |
| 2026 Apr 28 17:56 | 2026 Apr 22 22:47:01 | 99.5924 | 0.02730 | 11.3176 | 217.7840 | 351.2454 | 13.76850 | – |
| 2026 Apr 27 17:58 | 2026 Apr 22 22:47:01 | 99.5924 | 0.02730 | 11.3176 | 217.7840 | 351.2454 | 13.76850 | – |
| 2026 Apr 26 17:58 | 2026 Apr 22 22:47:01 | 99.5924 | 0.02730 | 11.3176 | 217.7840 | 351.2454 | 13.76850 | – |
| 2026 Apr 25 17:58 | 2026 Apr 22 22:47:01 | 99.5924 | 0.02730 | 11.3176 | 217.7840 | 351.2454 | 13.76850 | – |
| 2026 Apr 24 17:59 | 2026 Apr 22 22:47:01 | 99.5924 | 0.02730 | 11.3176 | 217.7840 | 351.2454 | 13.76850 | – |
| 2026 Apr 23 17:57 | 2026 Apr 16 22:02:46 | 99.5927 | 0.02724 | 10.9116 | 233.5338 | 351.2454 | 13.76850 | – |
| 2026 Apr 22 17:57 | 2026 Apr 16 22:02:46 | 99.5927 | 0.02724 | 10.9116 | 233.5338 | 351.2454 | 13.76850 | – |
| 2026 Apr 21 17:57 | 2026 Apr 16 22:02:46 | 99.5927 | 0.02724 | 10.9116 | 233.5338 | 351.2454 | 13.76850 | – |
| 2026 Apr 20 17:57 | 2026 Apr 16 22:02:46 | 99.5927 | 0.02724 | 10.9116 | 233.5338 | 351.2454 | 13.76850 | – |
| 2026 Apr 19 17:58 | 2026 Apr 16 22:02:46 | 99.5927 | 0.02724 | 10.9116 | 233.5338 | 351.2454 | 13.76850 | – |
| 2026 Apr 18 17:56 | 2026 Apr 09 09:35:35 | 99.5936 | 0.02717 | 10.4055 | 253.2085 | 351.2454 | 13.76850 | – |
| 2026 Apr 16 17:57 | 2026 Apr 09 09:35:35 | 99.5936 | 0.02717 | 10.4055 | 253.2085 | 351.2454 | 13.76850 | – |
| 2026 Apr 14 17:57 | 2026 Apr 09 09:35:35 | 99.5936 | 0.02717 | 10.4055 | 253.2085 | 351.2454 | 13.76850 | – |
| 2026 Apr 13 17:57 | 2026 Apr 09 09:35:35 | 99.5936 | 0.02717 | 10.4055 | 253.2085 | 351.2454 | 13.76850 | – |
| 2026 Apr 12 17:57 | 2026 Apr 06 10:05:10 | 99.5939 | 0.02714 | 10.2049 | 261.0173 | 351.2454 | 13.76850 | – |
| 2026 Apr 11 17:57 | 2026 Apr 06 10:05:10 | 99.5939 | 0.02714 | 10.2049 | 261.0173 | 351.2454 | 13.76850 | – |
| 2026 Apr 10 17:58 | 2026 Apr 06 10:05:10 | 99.5939 | 0.02714 | 10.2049 | 261.0173 | 351.2454 | 13.76850 | – |
| 2026 Apr 09 18:01 | 2026 Apr 06 10:05:10 | 99.5939 | 0.02714 | 10.2049 | 261.0173 | 351.2454 | 13.76850 | – |
| 2026 Apr 08 17:57 | 2026 Apr 06 10:05:10 | 99.5939 | 0.02714 | 10.2049 | 261.0173 | 351.2454 | 13.76850 | – |